Terminal Aerodrome Forecast
Issued by NWS

Home | Current Version | Previous Version | Text Only | Print | Product List | Glossary On
Versions: 1 2 3 4 5 6 7 8 9 10 11 12 13 14 15 16 17
000
FTUS42 TJSJ 311700
TAFJPS
TAF
TJPS 311727Z 3118/0118 12008KT P6SM FEW030
      TEMPO 3118/3120 5SM SHRA SCT020 BKN040
     FM312230 06005KT P6SM SCT025
     FM011430 14010KT P6SM FEW030 FEW060
      AMD NOT SKED TIL 010300=

USA.gov is the U.S. government's official web portal to all federal, state and local government web resources and services.